createdAt,value
2023-11-23T00:00:34.816Z,23.92
2023-11-23T00:03:02.916Z,27.70
2023-11-23T00:05:30.703Z,24.08
2023-11-23T00:07:59.502Z,27.13
2023-11-23T00:10:29.247Z,25.20
2023-11-23T00:12:57.069Z,28.02
2023-11-23T00:15:24.806Z,22.02
2023-11-23T00:17:53.572Z,24.40
2023-11-23T00:20:21.401Z,26.13
2023-11-23T00:22:52.410Z,26.12
2023-11-23T00:25:20.252Z,21.55
2023-11-23T00:27:47.790Z,23.48
2023-11-23T00:30:16.871Z,24.45
2023-11-23T00:32:44.846Z,22.80
2023-11-23T00:35:12.555Z,27.20
2023-11-23T00:37:40.622Z,22.80
2023-11-23T00:40:08.839Z,23.48
2023-11-23T00:42:36.297Z,21.85
2023-11-23T00:45:05.024Z,21.90
2023-11-23T00:47:32.940Z,23.80
2023-11-23T00:50:00.764Z,24.00
2023-11-23T00:52:31.625Z,22.98
2023-11-23T00:54:59.911Z,24.87
2023-11-23T00:57:27.760Z,22.40
2023-11-23T00:59:55.932Z,24.10
2023-11-23T01:02:23.627Z,23.40
2023-11-23T01:04:51.492Z,22.75
2023-11-23T01:07:19.309Z,22.15
2023-11-23T01:09:46.853Z,22.63
2023-11-23T01:12:15.363Z,23.62
2023-11-23T01:14:44.077Z,23.83
2023-11-23T01:17:11.636Z,24.20
2023-11-23T01:19:39.298Z,23.58
2023-11-23T01:22:07.494Z,24.67
2023-11-23T01:24:35.244Z,24.20
2023-11-23T01:27:03.019Z,25.65
2023-11-23T01:29:31.115Z,23.05
2023-11-23T01:31:59.075Z,23.15
2023-11-23T01:34:26.980Z,25.10
2023-11-23T01:36:55.134Z,24.80
2023-11-23T01:39:22.848Z,23.95
2023-11-23T01:41:50.431Z,23.15
2023-11-23T01:44:19.544Z,23.95
2023-11-23T01:46:47.324Z,23.93
2023-11-23T01:49:15.307Z,25.37
2023-11-23T01:51:43.395Z,23.12
2023-11-23T01:54:11.004Z,22.33
2023-11-23T01:56:39.271Z,22.55
2023-11-23T01:59:07.191Z,26.03
2023-11-23T02:01:35.466Z,23.65
2023-11-23T02:04:03.583Z,23.08
2023-11-23T02:06:32.091Z,24.75
2023-11-23T02:09:00.253Z,27.85
2023-11-23T02:11:28.489Z,28.43
2023-11-23T02:14:01.261Z,29.65
2023-11-23T02:16:29.184Z,30.30
2023-11-23T02:18:56.907Z,28.30
2023-11-23T02:21:25.211Z,27.30
2023-11-23T02:23:53.242Z,21.33
2023-11-23T02:26:21.216Z,21.37
2023-11-23T02:28:49.994Z,24.65
2023-11-23T02:31:17.793Z,26.87
2023-11-23T02:33:45.643Z,23.58
2023-11-23T02:36:16.717Z,32.73
2023-11-23T02:38:44.511Z,36.00
2023-11-23T02:41:12.022Z,27.45
2023-11-23T02:43:40.119Z,23.92
2023-11-23T02:46:08.159Z,25.95
2023-11-23T02:48:36.132Z,22.70
2023-11-23T02:51:04.304Z,23.52
2023-11-23T02:53:33.956Z,27.60
2023-11-23T02:56:02.552Z,22.83
2023-11-23T02:58:30.645Z,24.25
2023-11-23T03:00:58.578Z,23.33
2023-11-23T03:03:26.293Z,43.38
2023-11-23T03:05:55.052Z,34.75
2023-11-23T03:08:23.350Z,34.58
2023-11-23T03:10:52.107Z,26.87
2023-11-23T03:13:20.814Z,24.67
2023-11-23T03:15:51.178Z,22.30
2023-11-23T03:18:19.397Z,24.87
2023-11-23T03:20:47.439Z,24.67
2023-11-23T03:23:15.034Z,24.12
2023-11-23T03:25:45.486Z,23.33
2023-11-23T03:28:13.874Z,25.02
2023-11-23T03:30:41.514Z,23.75
2023-11-23T03:33:09.435Z,21.80
2023-11-23T03:35:37.538Z,22.60
2023-11-23T03:38:05.120Z,22.23
2023-11-23T03:40:32.859Z,18.50
2023-11-23T03:43:00.975Z,17.30
2023-11-23T03:45:28.722Z,19.05
2023-11-23T03:47:57.532Z,21.52
2023-11-23T03:50:25.650Z,19.87
2023-11-23T03:52:53.505Z,23.42
2023-11-23T03:55:21.036Z,22.37
2023-11-23T03:57:49.477Z,20.70
2023-11-23T04:00:17.278Z,20.65
2023-11-23T04:02:47.337Z,21.53
2023-11-23T04:05:21.609Z,19.20
2023-11-23T04:07:49.428Z,21.87
2023-11-23T04:10:17.277Z,20.52
2023-11-23T04:12:45.003Z,22.67
2023-11-23T04:15:13.917Z,23.43
2023-11-23T04:17:41.615Z,20.27
2023-11-23T04:20:10.906Z,21.33
2023-11-23T04:22:39.525Z,21.35
2023-11-23T04:25:07.396Z,22.35
2023-11-23T04:27:35.033Z,19.07
2023-11-23T04:30:05.738Z,19.83
2023-11-23T04:32:34.433Z,23.48
2023-11-23T04:35:02.228Z,18.25
2023-11-23T04:37:30.468Z,21.30
2023-11-23T04:39:59.136Z,22.43
2023-11-23T04:42:26.962Z,19.90
2023-11-23T04:44:54.840Z,20.25
2023-11-23T04:47:22.705Z,21.75
2023-11-23T04:49:50.701Z,22.80
2023-11-23T04:52:18.779Z,19.63
2023-11-23T04:54:46.579Z,21.95
2023-11-23T04:57:14.459Z,19.85
2023-11-23T04:59:42.572Z,23.10
2023-11-23T05:02:11.941Z,22.75
2023-11-23T05:04:39.742Z,23.53
2023-11-23T05:07:07.982Z,23.35
2023-11-23T05:09:35.496Z,24.20
2023-11-23T05:12:03.548Z,22.55
2023-11-23T05:14:31.693Z,25.37
2023-11-23T05:16:59.249Z,22.00
2023-11-23T05:19:36.075Z,23.62
2023-11-23T05:22:10.520Z,22.95
2023-11-23T05:24:38.188Z,25.15
2023-11-23T05:27:07.625Z,22.23
2023-11-23T05:29:35.663Z,21.10
2023-11-23T05:32:03.746Z,20.85
2023-11-23T05:34:31.352Z,22.08
2023-11-23T05:36:59.408Z,22.95
2023-11-23T05:39:27.784Z,22.15
2023-11-23T05:41:55.298Z,21.43
2023-11-23T05:44:23.777Z,24.92
2023-11-23T05:46:53.168Z,23.02
2023-11-23T05:49:22.691Z,23.05
2023-11-23T05:51:50.820Z,25.92
2023-11-23T05:54:18.829Z,22.83
2023-11-23T05:56:46.704Z,22.75
2023-11-23T05:59:14.920Z,23.05
2023-11-23T06:01:42.734Z,21.17
2023-11-23T06:04:11.183Z,22.95
2023-11-23T06:06:38.951Z,23.50
2023-11-23T06:09:06.914Z,27.98
2023-11-23T06:11:34.753Z,24.85
2023-11-23T06:14:02.574Z,24.02
2023-11-23T06:16:30.419Z,25.25
2023-11-23T06:18:59.200Z,25.53
2023-11-23T06:21:29.136Z,24.20
2023-11-23T06:23:56.750Z,23.90
2023-11-23T06:26:24.858Z,29.50
2023-11-23T06:28:52.498Z,23.35
2023-11-23T06:31:20.347Z,26.53
2023-11-23T06:33:48.623Z,24.35
2023-11-23T06:36:17.479Z,27.48
2023-11-23T06:38:45.273Z,27.35
2023-11-23T06:41:22.984Z,27.08
2023-11-23T06:43:51.508Z,25.33
2023-11-23T06:46:21.389Z,30.42
2023-11-23T06:48:49.506Z,25.15
2023-11-23T06:51:17.395Z,22.33
2023-11-23T06:53:47.459Z,24.52
2023-11-23T06:56:16.257Z,25.87
2023-11-23T06:58:47.862Z,25.23
2023-11-23T07:01:16.626Z,24.50
2023-11-23T07:03:45.285Z,28.90
2023-11-23T07:06:15.314Z,33.58
2023-11-23T07:08:43.375Z,31.70
2023-11-23T07:11:14.215Z,30.70
2023-11-23T07:13:41.990Z,28.50
2023-11-23T07:16:10.913Z,30.50
2023-11-23T07:18:39.108Z,24.58
2023-11-23T07:21:07.253Z,27.03
2023-11-23T07:23:37.637Z,27.35
2023-11-23T07:26:06.025Z,28.95
2023-11-23T07:28:33.946Z,27.73
2023-11-23T07:31:02.415Z,26.45
2023-11-23T07:33:35.629Z,29.43
2023-11-23T07:36:04.521Z,27.60
2023-11-23T07:38:33.606Z,26.83
2023-11-23T07:41:06.281Z,31.17
2023-11-23T07:43:35.092Z,29.63
2023-11-23T07:46:03.078Z,26.17
2023-11-23T07:48:32.370Z,29.15
2023-11-23T07:51:00.832Z,29.30
2023-11-23T07:53:31.784Z,26.65
2023-11-23T07:55:59.752Z,30.17
2023-11-23T07:58:27.615Z,31.37
2023-11-23T08:00:55.417Z,29.05
2023-11-23T08:03:23.376Z,26.80
2023-11-23T08:05:51.161Z,29.08
2023-11-23T08:08:19.001Z,29.83
2023-11-23T08:10:47.097Z,28.47
2023-11-23T08:13:17.444Z,28.27
2023-11-23T08:15:45.102Z,24.70
2023-11-23T08:18:13.543Z,32.70
2023-11-23T08:20:41.403Z,26.23
2023-11-23T08:23:10.170Z,27.13
2023-11-23T08:25:38.970Z,27.02
2023-11-23T08:28:06.856Z,26.40
2023-11-23T08:30:34.512Z,30.25
2023-11-23T08:33:02.672Z,31.73
2023-11-23T08:35:30.622Z,25.83
2023-11-23T08:37:58.863Z,25.67
2023-11-23T08:40:26.950Z,27.23
2023-11-23T08:42:54.508Z,29.27
2023-11-23T08:45:22.370Z,28.12
2023-11-23T08:47:50.525Z,29.13
2023-11-23T08:50:18.699Z,25.17
2023-11-23T08:52:46.279Z,24.87
2023-11-23T08:55:14.913Z,26.45
2023-11-23T08:57:42.489Z,24.80
2023-11-23T09:00:11.756Z,23.43
2023-11-23T09:02:40.475Z,26.40
2023-11-23T09:05:11.084Z,26.65
2023-11-23T09:07:40.345Z,26.10
2023-11-23T09:10:09.049Z,24.77
2023-11-23T09:12:39.686Z,27.10
2023-11-23T09:15:09.130Z,28.40
2023-11-23T09:17:37.856Z,23.35
2023-11-23T09:20:09.488Z,26.05
2023-11-23T09:22:37.475Z,24.25
2023-11-23T09:25:07.425Z,21.40
2023-11-23T09:27:37.628Z,25.17
2023-11-23T09:30:10.042Z,26.62
2023-11-23T09:32:39.042Z,23.23
2023-11-23T09:35:11.608Z,24.98
2023-11-23T09:37:39.427Z,24.33
2023-11-23T09:40:10.588Z,24.00
2023-11-23T09:42:39.863Z,26.92
2023-11-23T09:45:14.950Z,23.08
2023-11-23T09:47:43.614Z,25.15
2023-11-23T09:50:12.009Z,25.97
2023-11-23T09:52:40.850Z,27.00
2023-11-23T09:55:10.327Z,23.67
2023-11-23T09:57:39.268Z,25.50
2023-11-23T10:00:10.526Z,25.98
2023-11-23T10:02:38.716Z,31.17
2023-11-23T10:05:08.529Z,31.00
2023-11-23T10:07:36.898Z,29.52
2023-11-23T10:10:06.696Z,28.08
2023-11-23T10:12:34.674Z,28.20
2023-11-23T10:15:03.782Z,32.00
2023-11-23T10:17:32.042Z,30.37
2023-11-23T10:20:11.466Z,29.50
2023-11-23T10:22:46.758Z,27.10
2023-11-23T10:25:33.470Z,28.77
2023-11-23T10:28:02.354Z,25.07
2023-11-23T10:30:30.734Z,29.52
2023-11-23T10:32:59.659Z,25.62
2023-11-23T10:35:41.264Z,27.95
2023-11-23T10:38:09.405Z,26.45
2023-11-23T10:40:37.499Z,26.37
2023-11-23T10:43:08.047Z,22.48
2023-11-23T10:45:37.264Z,27.42
2023-11-23T10:48:05.883Z,24.05
2023-11-23T10:50:34.313Z,21.45
2023-11-23T10:53:02.890Z,18.20
2023-11-23T10:55:30.793Z,18.73
2023-11-23T10:58:02.901Z,16.40
2023-11-23T11:00:31.300Z,18.15
2023-11-23T11:03:01.330Z,20.10
2023-11-23T11:05:35.855Z,17.30
2023-11-23T11:08:09.286Z,16.42
2023-11-23T11:10:42.971Z,18.08
2023-11-23T11:13:16.872Z,21.37
2023-11-23T11:15:57.271Z,18.15
2023-11-23T11:18:27.697Z,14.70
2023-11-23T11:21:11.321Z,16.80
2023-11-23T11:23:47.519Z,17.77
2023-11-23T11:26:19.571Z,17.35
2023-11-23T11:28:55.392Z,17.98
2023-11-23T11:31:42.372Z,14.53
2023-11-23T11:34:18.398Z,17.37
2023-11-23T11:37:10.406Z,15.30
2023-11-23T11:39:40.427Z,17.33
2023-11-23T11:42:09.276Z,17.37
2023-11-23T11:44:43.062Z,15.80
2023-11-23T11:47:12.102Z,16.45
2023-11-23T11:49:39.805Z,17.10
2023-11-23T11:52:08.352Z,16.15
2023-11-23T11:54:39.686Z,17.25
2023-11-23T11:57:08.803Z,17.83
2023-11-23T11:59:37.934Z,15.57
2023-11-23T12:02:06.962Z,16.67
2023-11-23T12:04:36.796Z,14.52
2023-11-23T12:07:13.123Z,15.77
2023-11-23T12:09:46.300Z,16.40
2023-11-23T12:12:15.196Z,15.70
2023-11-23T12:14:45.596Z,16.70
2023-11-23T12:17:14.675Z,35.10
2023-11-23T12:19:56.360Z,22.13
2023-11-23T12:22:29.336Z,20.23
2023-11-23T12:25:06.796Z,14.50
2023-11-23T12:27:35.446Z,15.15
2023-11-23T12:30:05.946Z,14.85
2023-11-23T12:32:34.089Z,17.45
2023-11-23T12:35:01.923Z,14.57
2023-11-23T12:37:30.835Z,15.90
2023-11-23T12:39:58.855Z,16.55
2023-11-23T12:42:26.448Z,16.02
2023-11-23T12:44:54.543Z,16.62
2023-11-23T12:47:22.608Z,21.30
2023-11-23T12:49:50.605Z,16.15
2023-11-23T12:52:19.313Z,14.70
2023-11-23T12:54:46.955Z,14.30
2023-11-23T12:57:14.845Z,13.32
2023-11-23T12:59:42.657Z,13.03
2023-11-23T13:02:10.668Z,12.07
2023-11-23T13:04:38.692Z,33.42
2023-11-23T13:07:09.568Z,30.20
2023-11-23T13:09:45.956Z,18.48
2023-11-23T13:12:23.196Z,12.43
2023-11-23T13:14:53.958Z,12.85
2023-11-23T13:17:24.532Z,15.25
2023-11-23T13:20:04.736Z,11.82
2023-11-23T13:22:42.742Z,14.30
2023-11-23T13:25:18.641Z,16.83
2023-11-23T13:27:57.676Z,15.88
2023-11-23T13:30:36.946Z,13.10
2023-11-23T13:33:14.365Z,12.77
2023-11-23T13:35:48.627Z,14.87
2023-11-23T13:38:20.048Z,12.97
2023-11-23T13:40:50.979Z,14.65
2023-11-23T13:43:19.889Z,14.05
2023-11-23T13:45:50.844Z,13.45
2023-11-23T13:48:22.895Z,12.60
2023-11-23T13:50:51.754Z,14.40
2023-11-23T13:53:22.270Z,13.73
2023-11-23T13:55:53.543Z,14.40
2023-11-23T13:58:27.143Z,14.87
2023-11-23T14:00:57.896Z,16.00
2023-11-23T14:03:31.876Z,17.50
2023-11-23T14:06:07.664Z,15.88
2023-11-23T14:08:41.623Z,19.40
2023-11-23T14:11:09.917Z,17.05
2023-11-23T14:13:46.281Z,17.45
2023-11-23T14:16:24.340Z,19.20
2023-11-23T14:18:54.079Z,19.80
2023-11-23T14:21:34.826Z,21.27
2023-11-23T14:24:07.412Z,18.92
2023-11-23T14:26:35.910Z,20.17
2023-11-23T14:29:04.710Z,20.50
2023-11-23T14:31:34.204Z,18.87
2023-11-23T14:34:02.978Z,20.12
2023-11-23T14:36:31.693Z,22.08
2023-11-23T14:39:00.137Z,32.75
2023-11-23T14:41:28.704Z,27.97
2023-11-23T14:43:57.170Z,23.33
2023-11-23T14:46:25.354Z,23.85
2023-11-23T14:48:53.704Z,21.80
2023-11-23T14:51:23.786Z,21.35
2023-11-23T14:53:53.401Z,22.53
2023-11-23T14:56:27.512Z,24.55
2023-11-23T14:58:55.888Z,23.27
2023-11-23T15:01:24.559Z,27.90
2023-11-23T15:03:53.157Z,34.55
2023-11-23T15:06:22.094Z,30.03
2023-11-23T15:08:50.734Z,25.42
2023-11-23T15:11:18.912Z,46.53
2023-11-23T15:13:47.052Z,57.47
2023-11-23T15:16:18.876Z,35.50
2023-11-23T15:18:47.374Z,32.40
2023-11-23T15:21:16.605Z,26.15
2023-11-23T15:23:44.800Z,25.88
2023-11-23T15:26:13.278Z,23.12
2023-11-23T15:28:42.320Z,24.12
2023-11-23T15:31:11.746Z,31.40
2023-11-23T15:33:40.160Z,29.87
2023-11-23T15:36:09.377Z,24.92
2023-11-23T15:38:37.915Z,25.67
2023-11-23T15:41:06.446Z,22.45
2023-11-23T15:43:35.321Z,23.03
2023-11-23T15:46:06.040Z,24.75
2023-11-23T15:48:34.900Z,25.92
2023-11-23T15:51:03.034Z,29.60
2023-11-23T15:53:31.399Z,25.88
2023-11-23T15:56:00.625Z,23.27
2023-11-23T15:58:29.079Z,26.35
2023-11-23T16:00:58.594Z,53.30
2023-11-23T16:03:27.277Z,69.75
2023-11-23T16:05:55.927Z,41.80
2023-11-23T16:08:24.642Z,37.07
2023-11-23T16:10:53.120Z,33.45
2023-11-23T16:13:22.699Z,31.00
2023-11-23T16:15:51.196Z,26.75
2023-11-23T16:18:19.775Z,26.87
2023-11-23T16:20:49.225Z,26.40
2023-11-23T16:23:18.271Z,24.42
2023-11-23T16:25:46.971Z,24.65
2023-11-23T16:28:15.359Z,26.55
2023-11-23T16:30:43.998Z,29.80
2023-11-23T16:33:12.851Z,26.57
2023-11-23T16:35:41.692Z,27.27
2023-11-23T16:38:10.314Z,26.33
2023-11-23T16:40:39.992Z,28.15
2023-11-23T16:43:08.497Z,28.00
2023-11-23T16:45:36.923Z,26.43
2023-11-23T16:48:07.518Z,26.42
2023-11-23T16:50:35.811Z,30.37
2023-11-23T16:53:04.494Z,28.98
2023-11-23T16:55:36.413Z,34.35
2023-11-23T16:58:06.197Z,30.60
2023-11-23T17:00:37.309Z,33.22
2023-11-23T17:03:06.313Z,28.87
2023-11-23T17:05:35.054Z,26.02
2023-11-23T17:08:06.178Z,29.60
2023-11-23T17:10:34.612Z,27.97
2023-11-23T17:13:03.172Z,28.48
2023-11-23T17:15:31.614Z,28.33
2023-11-23T17:18:00.463Z,25.80
2023-11-23T17:20:29.808Z,30.90
2023-11-23T17:23:02.602Z,33.83
2023-11-23T17:25:31.818Z,31.30
2023-11-23T17:28:01.051Z,28.33
2023-11-23T17:30:29.977Z,28.70
2023-11-23T17:33:01.787Z,25.37
2023-11-23T17:35:30.774Z,21.60
2023-11-23T17:38:02.091Z,28.62
2023-11-23T17:40:30.377Z,31.02
2023-11-23T17:43:04.546Z,28.20
2023-11-23T17:45:34.628Z,27.00
2023-11-23T17:48:05.456Z,27.47
2023-11-23T17:50:34.577Z,28.33
2023-11-23T17:53:05.742Z,29.00
2023-11-23T17:55:34.767Z,28.67
2023-11-23T17:58:03.724Z,34.28
2023-11-23T18:00:33.378Z,33.43
2023-11-23T18:03:02.510Z,32.53
2023-11-23T18:05:33.103Z,36.42
2023-11-23T18:08:02.917Z,25.77
2023-11-23T18:10:31.401Z,29.60
2023-11-23T18:13:02.878Z,28.90
2023-11-23T18:15:34.341Z,28.30
2023-11-23T18:18:04.174Z,31.00
2023-11-23T18:20:37.450Z,29.80
2023-11-23T18:23:06.388Z,31.35
2023-11-23T18:25:37.683Z,35.77
2023-11-23T18:28:06.531Z,29.60
2023-11-23T18:30:39.054Z,30.33
2023-11-23T18:33:07.685Z,32.97
2023-11-23T18:35:36.726Z,33.72
2023-11-23T18:38:06.980Z,30.67
2023-11-23T18:40:37.099Z,28.83
2023-11-23T18:43:05.707Z,32.22
2023-11-23T18:45:37.550Z,34.15
2023-11-23T18:48:06.374Z,33.05
2023-11-23T18:50:35.209Z,31.37
2023-11-23T18:53:03.903Z,32.95
2023-11-23T18:55:36.968Z,30.48
2023-11-23T18:58:06.622Z,30.52
2023-11-23T19:00:35.783Z,32.17
2023-11-23T19:03:07.239Z,23.73
2023-11-23T19:05:39.111Z,23.00
2023-11-23T19:08:10.289Z,26.83
2023-11-23T19:10:40.032Z,23.83
2023-11-23T19:13:09.380Z,24.92
2023-11-23T19:15:37.762Z,21.83
2023-11-23T19:18:07.372Z,23.87
2023-11-23T19:20:36.817Z,23.30
2023-11-23T19:23:08.228Z,22.50
2023-11-23T19:25:37.081Z,23.27
2023-11-23T19:28:06.157Z,22.63
2023-11-23T19:30:34.891Z,22.25
2023-11-23T19:33:06.452Z,21.52
2023-11-23T19:35:39.161Z,22.95
2023-11-23T19:38:08.418Z,22.42
2023-11-23T19:40:37.691Z,22.33
2023-11-23T19:43:06.485Z,22.92
2023-11-23T19:45:35.113Z,24.45
2023-11-23T19:48:03.990Z,20.42
2023-11-23T19:50:33.626Z,19.75
2023-11-23T19:53:11.429Z,22.43
2023-11-23T19:55:40.380Z,25.73
2023-11-23T19:58:10.283Z,27.85
2023-11-23T20:00:41.176Z,26.08
2023-11-23T20:03:09.805Z,25.27
2023-11-23T20:05:43.468Z,25.23
2023-11-23T20:08:15.925Z,26.35
2023-11-23T20:10:45.998Z,26.12
2023-11-23T20:13:15.052Z,27.23
2023-11-23T20:15:46.867Z,28.98
2023-11-23T20:18:19.042Z,28.63
2023-11-23T20:20:47.242Z,27.20
2023-11-23T20:23:16.390Z,32.78
2023-11-23T20:25:47.762Z,28.15
2023-11-23T20:28:16.914Z,30.75
2023-11-23T20:30:45.480Z,27.70
2023-11-23T20:33:16.860Z,26.05
2023-11-23T20:35:49.504Z,29.65
2023-11-23T20:38:21.021Z,27.15
2023-11-23T20:40:52.413Z,28.50
2023-11-23T20:43:25.434Z,30.37
2023-11-23T20:45:55.843Z,23.55
2023-11-23T20:48:27.960Z,24.92
2023-11-23T20:50:57.064Z,22.92
2023-11-23T20:53:25.428Z,23.90
2023-11-23T20:55:54.695Z,23.43
2023-11-23T20:58:27.364Z,22.48
2023-11-23T21:00:58.172Z,23.50
2023-11-23T21:03:29.709Z,24.08
2023-11-23T21:05:59.080Z,23.52
2023-11-23T21:08:28.701Z,21.30
2023-11-23T21:11:00.340Z,21.42
2023-11-23T21:13:29.130Z,25.77
2023-11-23T21:15:57.889Z,28.42
2023-11-23T21:18:37.636Z,25.00
2023-11-23T21:21:06.970Z,21.27
2023-11-23T21:23:37.790Z,23.45
2023-11-23T21:26:11.856Z,19.83
2023-11-23T21:28:46.423Z,22.35
2023-11-23T21:31:18.001Z,21.05
2023-11-23T21:33:50.204Z,23.33
2023-11-23T21:36:22.587Z,21.23
2023-11-23T21:38:55.883Z,22.95
2023-11-23T21:41:24.716Z,23.23
2023-11-23T21:43:53.183Z,20.85
2023-11-23T21:46:21.634Z,21.43
2023-11-23T21:48:50.059Z,20.77
2023-11-23T21:51:23.397Z,20.20
2023-11-23T21:53:51.988Z,20.73
2023-11-23T21:56:20.475Z,21.75
2023-11-23T21:58:48.647Z,21.30
2023-11-23T22:01:16.869Z,23.10
2023-11-23T22:03:46.253Z,20.77
2023-11-23T22:06:15.910Z,21.52
2023-11-23T22:08:43.703Z,20.92
2023-11-23T22:11:13.877Z,18.03
2023-11-23T22:13:42.001Z,20.37
2023-11-23T22:16:09.836Z,18.62
2023-11-23T22:18:37.957Z,23.65
2023-11-23T22:21:05.819Z,22.20
2023-11-23T22:23:33.958Z,21.57
2023-11-23T22:26:02.288Z,23.17
2023-11-23T22:28:30.391Z,23.73
2023-11-23T22:30:59.518Z,26.42
2023-11-23T22:33:28.494Z,20.55
2023-11-23T22:35:56.564Z,20.70
2023-11-23T22:38:24.942Z,21.02
2023-11-23T22:40:53.796Z,22.05
2023-11-23T22:43:21.957Z,21.48
2023-11-23T22:45:50.542Z,21.17
2023-11-23T22:48:18.680Z,24.40
2023-11-23T22:50:46.530Z,21.48
2023-11-23T22:53:14.231Z,22.55
2023-11-23T22:55:42.167Z,24.25
2023-11-23T22:58:09.685Z,22.92
2023-11-23T23:00:38.176Z,20.43
2023-11-23T23:03:06.350Z,23.23
2023-11-23T23:05:34.850Z,23.90
2023-11-23T23:08:04.868Z,26.20
2023-11-23T23:10:34.330Z,21.98
2023-11-23T23:13:04.351Z,26.23
2023-11-23T23:15:32.099Z,24.83
2023-11-23T23:18:00.287Z,23.85
2023-11-23T23:20:28.045Z,28.48
2023-11-23T23:22:55.937Z,23.05
2023-11-23T23:25:23.862Z,26.63
2023-11-23T23:27:51.829Z,24.50
2023-11-23T23:30:19.771Z,23.30
2023-11-23T23:32:48.312Z,24.52
2023-11-23T23:35:17.027Z,21.20
2023-11-23T23:37:44.631Z,26.17
2023-11-23T23:40:12.874Z,21.33
2023-11-23T23:42:42.189Z,24.12
2023-11-23T23:45:10.201Z,24.95
2023-11-23T23:47:39.683Z,24.23
2023-11-23T23:50:07.725Z,22.43
2023-11-23T23:52:35.648Z,23.42
2023-11-23T23:55:07.703Z,24.35
2023-11-23T23:57:37.534Z,23.83
